sensor_id;sensor_type;location;lat;lon;timestamp;temperature;humidity
76099;DHT22;64828;49.956;8.636;2023-02-28T00:00:08;-2.10;73.40
76099;DHT22;64828;49.956;8.636;2023-02-28T00:00:25;-2.10;73.20
76099;DHT22;64828;49.956;8.636;2023-02-28T00:00:41;-2.10;72.90
76099;DHT22;64828;49.956;8.636;2023-02-28T00:00:58;-2.10;72.90
76099;DHT22;64828;49.956;8.636;2023-02-28T00:01:14;-2.10;72.90
76099;DHT22;64828;49.956;8.636;2023-02-28T00:01:31;-2.10;72.90
76099;DHT22;64828;49.956;8.636;2023-02-28T00:01:47;-2.10;73.10
76099;DHT22;64828;49.956;8.636;2023-02-28T00:02:03;-2.10;73.10
76099;DHT22;64828;49.956;8.636;2023-02-28T00:02:18;-2.10;73.10
76099;DHT22;64828;49.956;8.636;2023-02-28T00:02:34;-2.10;73.10
76099;DHT22;64828;49.956;8.636;2023-02-28T00:02:50;-2.10;73.10
76099;DHT22;64828;49.956;8.636;2023-02-28T00:03:06;-2.10;73.00
76099;DHT22;64828;49.956;8.636;2023-02-28T00:03:21;-2.10;73.00
76099;DHT22;64828;49.956;8.636;2023-02-28T00:03:37;-2.10;73.10
76099;DHT22;64828;49.956;8.636;2023-02-28T00:03:52;-2.10;73.10
76099;DHT22;64828;49.956;8.636;2023-02-28T00:04:08;-2.10;73.10
76099;DHT22;64828;49.956;8.636;2023-02-28T00:04:24;-2.10;73.00
76099;DHT22;64828;49.956;8.636;2023-02-28T00:04:40;-2.00;73.00
76099;DHT22;64828;49.956;8.636;2023-02-28T00:04:55;-2.00;72.80
76099;DHT22;64828;49.956;8.636;2023-02-28T00:05:19;-2.00;72.70
76099;DHT22;64828;49.956;8.636;2023-02-28T00:05:37;-2.10;72.80
76099;DHT22;64828;49.956;8.636;2023-02-28T00:05:52;-2.10;72.80
76099;DHT22;64828;49.956;8.636;2023-02-28T00:06:08;-2.10;72.90
76099;DHT22;64828;49.956;8.636;2023-02-28T00:06:27;-2.10;73.00
76099;DHT22;64828;49.956;8.636;2023-02-28T00:06:43;-2.10;73.20
76099;DHT22;64828;49.956;8.636;2023-02-28T00:06:58;-2.10;73.10
76099;DHT22;64828;49.956;8.636;2023-02-28T00:07:14;-2.10;73.20
76099;DHT22;64828;49.956;8.636;2023-02-28T00:07:30;-2.10;73.20
76099;DHT22;64828;49.956;8.636;2023-02-28T00:07:47;-2.10;73.30
76099;DHT22;64828;49.956;8.636;2023-02-28T00:08:05;-2.10;73.30
76099;DHT22;64828;49.956;8.636;2023-02-28T00:08:21;-2.10;73.40
76099;DHT22;64828;49.956;8.636;2023-02-28T00:08:37;-2.10;73.60
76099;DHT22;64828;49.956;8.636;2023-02-28T00:08:54;-2.10;73.70
76099;DHT22;64828;49.956;8.636;2023-02-28T00:09:10;-2.20;73.60
76099;DHT22;64828;49.956;8.636;2023-02-28T00:09:25;-2.20;73.50
76099;DHT22;64828;49.956;8.636;2023-02-28T00:09:41;-2.20;73.60
76099;DHT22;64828;49.956;8.636;2023-02-28T00:09:57;-2.20;73.60
76099;DHT22;64828;49.956;8.636;2023-02-28T00:10:20;-2.10;73.60
76099;DHT22;64828;49.956;8.636;2023-02-28T00:10:38;-2.10;73.50
76099;DHT22;64828;49.956;8.636;2023-02-28T00:10:54;-2.10;73.50
76099;DHT22;64828;49.956;8.636;2023-02-28T00:11:11;-2.10;73.50
76099;DHT22;64828;49.956;8.636;2023-02-28T00:11:28;-2.10;73.50
76099;DHT22;64828;49.956;8.636;2023-02-28T00:11:46;-2.10;73.40
76099;DHT22;64828;49.956;8.636;2023-02-28T00:12:02;-2.10;73.30
76099;DHT22;64828;49.956;8.636;2023-02-28T00:12:25;-2.10;73.30
76099;DHT22;64828;49.956;8.636;2023-02-28T00:12:41;-2.10;73.30
76099;DHT22;64828;49.956;8.636;2023-02-28T00:13:05;-2.10;73.30
76099;DHT22;64828;49.956;8.636;2023-02-28T00:13:21;-2.00;73.20
76099;DHT22;64828;49.956;8.636;2023-02-28T00:13:39;-2.10;73.10
76099;DHT22;64828;49.956;8.636;2023-02-28T00:13:58;-2.10;73.10
76099;DHT22;64828;49.956;8.636;2023-02-28T00:14:14;-2.10;73.10
76099;DHT22;64828;49.956;8.636;2023-02-28T00:14:30;-2.10;73.20
76099;DHT22;64828;49.956;8.636;2023-02-28T00:14:45;-2.00;73.30
76099;DHT22;64828;49.956;8.636;2023-02-28T00:15:02;-2.10;73.20
76099;DHT22;64828;49.956;8.636;2023-02-28T00:15:20;-2.10;73.20
76099;DHT22;64828;49.956;8.636;2023-02-28T00:15:38;-2.10;73.30
76099;DHT22;64828;49.956;8.636;2023-02-28T00:16:10;-2.10;73.20
76099;DHT22;64828;49.956;8.636;2023-02-28T00:16:28;-2.10;73.40
76099;DHT22;64828;49.956;8.636;2023-02-28T00:16:44;-2.10;73.50
76099;DHT22;64828;49.956;8.636;2023-02-28T00:16:59;-2.10;73.40
76099;DHT22;64828;49.956;8.636;2023-02-28T00:17:15;-2.10;73.30
76099;DHT22;64828;49.956;8.636;2023-02-28T00:17:33;-2.10;73.30
76099;DHT22;64828;49.956;8.636;2023-02-28T00:17:48;-2.10;73.30
76099;DHT22;64828;49.956;8.636;2023-02-28T00:18:04;-2.00;73.20
76099;DHT22;64828;49.956;8.636;2023-02-28T00:18:20;-2.10;73.20
76099;DHT22;64828;49.956;8.636;2023-02-28T00:18:36;-2.10;73.20
76099;DHT22;64828;49.956;8.636;2023-02-28T00:18:52;-2.10;73.30
76099;DHT22;64828;49.956;8.636;2023-02-28T00:19:08;-2.10;73.40
76099;DHT22;64828;49.956;8.636;2023-02-28T00:19:24;-2.10;73.40
76099;DHT22;64828;49.956;8.636;2023-02-28T00:19:40;-2.10;73.40
76099;DHT22;64828;49.956;8.636;2023-02-28T00:19:55;-2.20;73.50
76099;DHT22;64828;49.956;8.636;2023-02-28T00:20:12;-2.20;73.60
76099;DHT22;64828;49.956;8.636;2023-02-28T00:20:28;-2.20;73.70
76099;DHT22;64828;49.956;8.636;2023-02-28T00:20:45;-2.20;73.80
76099;DHT22;64828;49.956;8.636;2023-02-28T00:21:01;-2.10;73.80
76099;DHT22;64828;49.956;8.636;2023-02-28T00:21:18;-2.20;73.80
76099;DHT22;64828;49.956;8.636;2023-02-28T00:21:34;-2.20;73.80
76099;DHT22;64828;49.956;8.636;2023-02-28T00:21:50;-2.20;73.80
76099;DHT22;64828;49.956;8.636;2023-02-28T00:22:06;-2.20;73.80
76099;DHT22;64828;49.956;8.636;2023-02-28T00:22:22;-2.20;73.80
76099;DHT22;64828;49.956;8.636;2023-02-28T00:22:49;-2.20;73.80
76099;DHT22;64828;49.956;8.636;2023-02-28T00:23:06;-2.20;73.80
76099;DHT22;64828;49.956;8.636;2023-02-28T00:23:21;-2.20;73.90
76099;DHT22;64828;49.956;8.636;2023-02-28T00:23:37;-2.10;74.00
76099;DHT22;64828;49.956;8.636;2023-02-28T00:23:53;-2.10;73.90
76099;DHT22;64828;49.956;8.636;2023-02-28T00:24:08;-2.10;73.60
76099;DHT22;64828;49.956;8.636;2023-02-28T00:24:24;-2.10;73.60
76099;DHT22;64828;49.956;8.636;2023-02-28T00:24:39;-2.10;73.50
76099;DHT22;64828;49.956;8.636;2023-02-28T00:24:55;-2.10;73.50
76099;DHT22;64828;49.956;8.636;2023-02-28T00:25:13;-2.10;73.50
76099;DHT22;64828;49.956;8.636;2023-02-28T00:25:31;-2.10;73.50
76099;DHT22;64828;49.956;8.636;2023-02-28T00:25:46;-2.10;73.70
76099;DHT22;64828;49.956;8.636;2023-02-28T00:26:02;-2.20;73.80
76099;DHT22;64828;49.956;8.636;2023-02-28T00:26:18;-2.20;73.90
76099;DHT22;64828;49.956;8.636;2023-02-28T00:26:34;-2.20;73.80
76099;DHT22;64828;49.956;8.636;2023-02-28T00:26:50;-2.20;73.80
76099;DHT22;64828;49.956;8.636;2023-02-28T00:27:05;-2.20;73.80
76099;DHT22;64828;49.956;8.636;2023-02-28T00:27:21;-2.10;73.80
76099;DHT22;64828;49.956;8.636;2023-02-28T00:27:38;-2.10;73.80
76099;DHT22;64828;49.956;8.636;2023-02-28T00:27:54;-2.20;73.90
76099;DHT22;64828;49.956;8.636;2023-02-28T00:28:10;-2.20;73.80
76099;DHT22;64828;49.956;8.636;2023-02-28T00:28:26;-2.00;73.70
76099;DHT22;64828;49.956;8.636;2023-02-28T00:28:42;-2.00;73.50
76099;DHT22;64828;49.956;8.636;2023-02-28T00:28:57;-2.00;73.40
76099;DHT22;64828;49.956;8.636;2023-02-28T00:29:13;-2.10;73.40
76099;DHT22;64828;49.956;8.636;2023-02-28T00:29:29;-2.10;73.50
76099;DHT22;64828;49.956;8.636;2023-02-28T00:29:46;-2.10;73.50
76099;DHT22;64828;49.956;8.636;2023-02-28T00:30:03;-2.10;73.60
76099;DHT22;64828;49.956;8.636;2023-02-28T00:30:22;-2.10;73.60
76099;DHT22;64828;49.956;8.636;2023-02-28T00:30:38;-2.10;73.60
76099;DHT22;64828;49.956;8.636;2023-02-28T00:30:54;-1.90;73.40
76099;DHT22;64828;49.956;8.636;2023-02-28T00:31:10;-1.90;73.20
76099;DHT22;64828;49.956;8.636;2023-02-28T00:31:25;-1.90;73.00
76099;DHT22;64828;49.956;8.636;2023-02-28T00:31:41;-2.00;73.00
76099;DHT22;64828;49.956;8.636;2023-02-28T00:31:56;-2.00;73.00
76099;DHT22;64828;49.956;8.636;2023-02-28T00:32:12;-2.00;73.00
76099;DHT22;64828;49.956;8.636;2023-02-28T00:32:28;-2.10;73.20
76099;DHT22;64828;49.956;8.636;2023-02-28T00:32:44;-2.10;73.30
76099;DHT22;64828;49.956;8.636;2023-02-28T00:33:00;-2.10;73.40
76099;DHT22;64828;49.956;8.636;2023-02-28T00:33:16;-2.20;73.50
76099;DHT22;64828;49.956;8.636;2023-02-28T00:33:32;-2.20;73.60
76099;DHT22;64828;49.956;8.636;2023-02-28T00:33:47;-2.20;73.80
76099;DHT22;64828;49.956;8.636;2023-02-28T00:34:03;-2.10;73.80
76099;DHT22;64828;49.956;8.636;2023-02-28T00:34:19;-2.10;73.90
76099;DHT22;64828;49.956;8.636;2023-02-28T00:34:34;-2.20;73.80
76099;DHT22;64828;49.956;8.636;2023-02-28T00:34:53;-2.20;73.80
76099;DHT22;64828;49.956;8.636;2023-02-28T00:35:10;-2.20;73.90
76099;DHT22;64828;49.956;8.636;2023-02-28T00:35:26;-2.20;74.00
76099;DHT22;64828;49.956;8.636;2023-02-28T00:35:41;-2.20;74.10
76099;DHT22;64828;49.956;8.636;2023-02-28T00:36:05;-2.20;74.10
76099;DHT22;64828;49.956;8.636;2023-02-28T00:36:23;-2.20;74.00
76099;DHT22;64828;49.956;8.636;2023-02-28T00:36:38;-2.20;74.00
76099;DHT22;64828;49.956;8.636;2023-02-28T00:36:56;-2.20;74.20
76099;DHT22;64828;49.956;8.636;2023-02-28T00:37:12;-2.30;74.30
76099;DHT22;64828;49.956;8.636;2023-02-28T00:37:27;-2.30;74.40
76099;DHT22;64828;49.956;8.636;2023-02-28T00:37:43;-2.30;74.30
76099;DHT22;64828;49.956;8.636;2023-02-28T00:37:59;-2.30;74.40
76099;DHT22;64828;49.956;8.636;2023-02-28T00:38:15;-2.30;74.40
76099;DHT22;64828;49.956;8.636;2023-02-28T00:38:31;-2.30;74.40
76099;DHT22;64828;49.956;8.636;2023-02-28T00:38:47;-2.30;74.40
76099;DHT22;64828;49.956;8.636;2023-02-28T00:39:03;-2.30;74.50
76099;DHT22;64828;49.956;8.636;2023-02-28T00:39:19;-2.30;74.50
76099;DHT22;64828;49.956;8.636;2023-02-28T00:39:36;-2.30;74.50
76099;DHT22;64828;49.956;8.636;2023-02-28T00:39:52;-2.20;74.70
76099;DHT22;64828;49.956;8.636;2023-02-28T00:40:09;-2.20;74.40
76099;DHT22;64828;49.956;8.636;2023-02-28T00:40:26;-2.20;74.30
76099;DHT22;64828;49.956;8.636;2023-02-28T00:40:42;-2.20;74.20
76099;DHT22;64828;49.956;8.636;2023-02-28T00:40:58;-2.20;74.20
76099;DHT22;64828;49.956;8.636;2023-02-28T00:41:19;-2.20;74.20
76099;DHT22;64828;49.956;8.636;2023-02-28T00:41:35;-2.20;74.30
76099;DHT22;64828;49.956;8.636;2023-02-28T00:41:50;-2.20;74.30
76099;DHT22;64828;49.956;8.636;2023-02-28T00:42:07;-2.20;74.30
76099;DHT22;64828;49.956;8.636;2023-02-28T00:42:24;-2.20;74.30
76099;DHT22;64828;49.956;8.636;2023-02-28T00:42:40;-2.20;74.20
76099;DHT22;64828;49.956;8.636;2023-02-28T00:42:55;-2.20;74.20
76099;DHT22;64828;49.956;8.636;2023-02-28T00:43:11;-2.30;74.30
76099;DHT22;64828;49.956;8.636;2023-02-28T00:43:27;-2.20;74.40
76099;DHT22;64828;49.956;8.636;2023-02-28T00:43:42;-2.20;74.40
76099;DHT22;64828;49.956;8.636;2023-02-28T00:43:58;-2.20;74.40
76099;DHT22;64828;49.956;8.636;2023-02-28T00:44:14;-2.20;74.40
76099;DHT22;64828;49.956;8.636;2023-02-28T00:44:30;-2.20;74.50
76099;DHT22;64828;49.956;8.636;2023-02-28T00:44:46;-2.30;74.50
76099;DHT22;64828;49.956;8.636;2023-02-28T00:45:02;-2.30;74.50
76099;DHT22;64828;49.956;8.636;2023-02-28T00:45:19;-2.30;74.50
76099;DHT22;64828;49.956;8.636;2023-02-28T00:45:35;-2.30;74.50
76099;DHT22;64828;49.956;8.636;2023-02-28T00:45:51;-2.30;74.50
76099;DHT22;64828;49.956;8.636;2023-02-28T00:46:07;-2.30;74.50
76099;DHT22;64828;49.956;8.636;2023-02-28T00:46:23;-2.30;74.50
76099;DHT22;64828;49.956;8.636;2023-02-28T00:46:38;-2.30;74.50
76099;DHT22;64828;49.956;8.636;2023-02-28T00:46:54;-2.30;74.50
76099;DHT22;64828;49.956;8.636;2023-02-28T00:47:10;-2.30;74.60
76099;DHT22;64828;49.956;8.636;2023-02-28T00:47:26;-2.40;74.70
76099;DHT22;64828;49.956;8.636;2023-02-28T00:47:42;-2.40;74.50
76099;DHT22;64828;49.956;8.636;2023-02-28T00:47:57;-2.40;74.60
76099;DHT22;64828;49.956;8.636;2023-02-28T00:48:13;-2.40;74.70
76099;DHT22;64828;49.956;8.636;2023-02-28T00:48:28;-2.30;74.90
76099;DHT22;64828;49.956;8.636;2023-02-28T00:48:44;-2.40;75.00
76099;DHT22;64828;49.956;8.636;2023-02-28T00:49:00;-2.40;74.90
76099;DHT22;64828;49.956;8.636;2023-02-28T00:49:16;-2.40;74.90
76099;DHT22;64828;49.956;8.636;2023-02-28T00:49:32;-2.40;74.80
76099;DHT22;64828;49.956;8.636;2023-02-28T00:49:47;-2.40;74.80
76099;DHT22;64828;49.956;8.636;2023-02-28T00:50:04;-2.40;74.90
76099;DHT22;64828;49.956;8.636;2023-02-28T00:50:21;-2.40;74.90
76099;DHT22;64828;49.956;8.636;2023-02-28T00:50:36;-2.30;74.90
76099;DHT22;64828;49.956;8.636;2023-02-28T00:50:52;-2.30;74.90
76099;DHT22;64828;49.956;8.636;2023-02-28T00:51:07;-2.30;74.80
76099;DHT22;64828;49.956;8.636;2023-02-28T00:51:23;-2.30;74.70
76099;DHT22;64828;49.956;8.636;2023-02-28T00:51:39;-2.40;74.70
76099;DHT22;64828;49.956;8.636;2023-02-28T00:51:55;-2.40;74.80
76099;DHT22;64828;49.956;8.636;2023-02-28T00:52:11;-2.40;75.00
76099;DHT22;64828;49.956;8.636;2023-02-28T00:52:26;-2.30;75.00
76099;DHT22;64828;49.956;8.636;2023-02-28T00:52:42;-2.30;75.00
76099;DHT22;64828;49.956;8.636;2023-02-28T00:52:58;-2.30;75.00
76099;DHT22;64828;49.956;8.636;2023-02-28T00:53:13;-2.40;74.90
76099;DHT22;64828;49.956;8.636;2023-02-28T00:53:29;-2.40;74.70
76099;DHT22;64828;49.956;8.636;2023-02-28T00:53:45;-2.40;75.00
76099;DHT22;64828;49.956;8.636;2023-02-28T00:54:00;-2.30;75.00
76099;DHT22;64828;49.956;8.636;2023-02-28T00:54:16;-2.30;75.00
76099;DHT22;64828;49.956;8.636;2023-02-28T00:54:32;-2.30;74.90
76099;DHT22;64828;49.956;8.636;2023-02-28T00:54:48;-2.30;74.90
76099;DHT22;64828;49.956;8.636;2023-02-28T00:55:04;-2.30;74.90
76099;DHT22;64828;49.956;8.636;2023-02-28T00:55:20;-2.30;74.80
76099;DHT22;64828;49.956;8.636;2023-02-28T00:55:35;-2.30;74.70
76099;DHT22;64828;49.956;8.636;2023-02-28T00:55:51;-2.30;74.80
76099;DHT22;64828;49.956;8.636;2023-02-28T00:56:06;-2.30;74.90
76099;DHT22;64828;49.956;8.636;2023-02-28T00:56:22;-2.30;74.90
76099;DHT22;64828;49.956;8.636;2023-02-28T00:56:38;-2.30;75.00
76099;DHT22;64828;49.956;8.636;2023-02-28T00:56:53;-2.20;75.00
76099;DHT22;64828;49.956;8.636;2023-02-28T00:57:09;-2.20;74.80
76099;DHT22;64828;49.956;8.636;2023-02-28T00:57:25;-2.10;74.70
76099;DHT22;64828;49.956;8.636;2023-02-28T00:57:41;-2.10;74.50
76099;DHT22;64828;49.956;8.636;2023-02-28T00:57:57;-2.10;74.40
76099;DHT22;64828;49.956;8.636;2023-02-28T00:58:12;-2.20;74.50
76099;DHT22;64828;49.956;8.636;2023-02-28T00:58:28;-2.20;74.50
76099;DHT22;64828;49.956;8.636;2023-02-28T00:58:44;-2.20;74.60
76099;DHT22;64828;49.956;8.636;2023-02-28T00:58:59;-2.20;74.70
76099;DHT22;64828;49.956;8.636;2023-02-28T00:59:16;-2.20;74.80
76099;DHT22;64828;49.956;8.636;2023-02-28T00:59:32;-2.20;74.70
76099;DHT22;64828;49.956;8.636;2023-02-28T00:59:48;-2.20;74.60
76099;DHT22;64828;49.956;8.636;2023-02-28T01:00:05;-2.20;74.70
76099;DHT22;64828;49.956;8.636;2023-02-28T01:00:21;-2.20;74.60
76099;DHT22;64828;49.956;8.636;2023-02-28T01:00:37;-2.10;74.60
76099;DHT22;64828;49.956;8.636;2023-02-28T01:00:52;-2.10;74.50
76099;DHT22;64828;49.956;8.636;2023-02-28T01:01:09;-2.10;74.20
76099;DHT22;64828;49.956;8.636;2023-02-28T01:01:24;-2.10;74.30
76099;DHT22;64828;49.956;8.636;2023-02-28T01:01:40;-2.20;74.30
76099;DHT22;64828;49.956;8.636;2023-02-28T01:01:56;-2.20;74.50
76099;DHT22;64828;49.956;8.636;2023-02-28T01:02:12;-2.20;74.70
76099;DHT22;64828;49.956;8.636;2023-02-28T01:02:28;-2.20;74.70
76099;DHT22;64828;49.956;8.636;2023-02-28T01:02:43;-2.20;74.70
76099;DHT22;64828;49.956;8.636;2023-02-28T01:02:59;-2.20;74.80
76099;DHT22;64828;49.956;8.636;2023-02-28T01:03:16;-2.20;74.80
76099;DHT22;64828;49.956;8.636;2023-02-28T01:03:33;-2.20;74.80
76099;DHT22;64828;49.956;8.636;2023-02-28T01:03:48;-2.20;74.90
76099;DHT22;64828;49.956;8.636;2023-02-28T01:04:04;-2.20;74.80
76099;DHT22;64828;49.956;8.636;2023-02-28T01:04:20;-2.20;74.90
76099;DHT22;64828;49.956;8.636;2023-02-28T01:04:35;-2.20;74.80
76099;DHT22;64828;49.956;8.636;2023-02-28T01:04:51;-2.20;74.80
76099;DHT22;64828;49.956;8.636;2023-02-28T01:05:07;-2.20;74.80
76099;DHT22;64828;49.956;8.636;2023-02-28T01:05:23;-2.20;74.90
76099;DHT22;64828;49.956;8.636;2023-02-28T01:05:39;-2.20;75.00
76099;DHT22;64828;49.956;8.636;2023-02-28T01:05:56;-2.20;75.00
76099;DHT22;64828;49.956;8.636;2023-02-28T01:06:12;-2.30;75.00
76099;DHT22;64828;49.956;8.636;2023-02-28T01:06:28;-2.20;75.20
76099;DHT22;64828;49.956;8.636;2023-02-28T01:06:43;-2.20;75.20
76099;DHT22;64828;49.956;8.636;2023-02-28T01:06:59;-2.20;75.10
76099;DHT22;64828;49.956;8.636;2023-02-28T01:07:15;-2.20;75.10
76099;DHT22;64828;49.956;8.636;2023-02-28T01:07:30;-2.20;75.00
76099;DHT22;64828;49.956;8.636;2023-02-28T01:07:46;-2.20;75.00
76099;DHT22;64828;49.956;8.636;2023-02-28T01:08:02;-2.20;75.10
76099;DHT22;64828;49.956;8.636;2023-02-28T01:08:18;-2.20;75.10
76099;DHT22;64828;49.956;8.636;2023-02-28T01:08:34;-2.20;75.10
76099;DHT22;64828;49.956;8.636;2023-02-28T01:08:50;-2.30;75.00
76099;DHT22;64828;49.956;8.636;2023-02-28T01:09:06;-2.30;75.20
76099;DHT22;64828;49.956;8.636;2023-02-28T01:09:22;-2.30;75.40
76099;DHT22;64828;49.956;8.636;2023-02-28T01:09:38;-2.30;75.50
76099;DHT22;64828;49.956;8.636;2023-02-28T01:09:54;-2.30;75.70
76099;DHT22;64828;49.956;8.636;2023-02-28T01:10:10;-2.30;75.80
76099;DHT22;64828;49.956;8.636;2023-02-28T01:10:27;-2.30;75.70
76099;DHT22;64828;49.956;8.636;2023-02-28T01:10:46;-2.40;75.70
76099;DHT22;64828;49.956;8.636;2023-02-28T01:11:11;-2.30;75.80
76099;DHT22;64828;49.956;8.636;2023-02-28T01:11:28;-2.40;76.00
76099;DHT22;64828;49.956;8.636;2023-02-28T01:11:43;-2.40;76.00
76099;DHT22;64828;49.956;8.636;2023-02-28T01:11:59;-2.40;75.90
76099;DHT22;64828;49.956;8.636;2023-02-28T01:12:15;-2.50;76.00
76099;DHT22;64828;49.956;8.636;2023-02-28T01:12:30;-2.50;76.00
76099;DHT22;64828;49.956;8.636;2023-02-28T01:12:46;-2.50;76.10
76099;DHT22;64828;49.956;8.636;2023-02-28T01:13:02;-2.50;76.20
76099;DHT22;64828;49.956;8.636;2023-02-28T01:13:18;-2.50;76.20
76099;DHT22;64828;49.956;8.636;2023-02-28T01:13:34;-2.50;76.20
76099;DHT22;64828;49.956;8.636;2023-02-28T01:13:50;-2.50;76.30
76099;DHT22;64828;49.956;8.636;2023-02-28T01:14:06;-2.60;76.20
76099;DHT22;64828;49.956;8.636;2023-02-28T01:14:22;-2.60;76.40
76099;DHT22;64828;49.956;8.636;2023-02-28T01:14:38;-2.60;76.40
76099;DHT22;64828;49.956;8.636;2023-02-28T01:14:53;-2.60;76.40
76099;DHT22;64828;49.956;8.636;2023-02-28T01:15:10;-2.60;76.50
76099;DHT22;64828;49.956;8.636;2023-02-28T01:15:26;-2.60;76.60
76099;DHT22;64828;49.956;8.636;2023-02-28T01:15:54;-2.60;76.60
76099;DHT22;64828;49.956;8.636;2023-02-28T01:16:12;-2.50;76.60
76099;DHT22;64828;49.956;8.636;2023-02-28T01:16:28;-2.50;76.60
76099;DHT22;64828;49.956;8.636;2023-02-28T01:16:44;-2.50;76.50
76099;DHT22;64828;49.956;8.636;2023-02-28T01:17:00;-2.40;76.40
76099;DHT22;64828;49.956;8.636;2023-02-28T01:17:16;-2.40;76.30
76099;DHT22;64828;49.956;8.636;2023-02-28T01:17:31;-2.40;76.30
76099;DHT22;64828;49.956;8.636;2023-02-28T01:17:47;-2.40;76.30
76099;DHT22;64828;49.956;8.636;2023-02-28T01:18:02;-2.40;76.30
76099;DHT22;64828;49.956;8.636;2023-02-28T01:18:18;-2.50;76.30
76099;DHT22;64828;49.956;8.636;2023-02-28T01:18:36;-2.50;76.30
76099;DHT22;64828;49.956;8.636;2023-02-28T01:18:53;-2.50;76.50
76099;DHT22;64828;49.956;8.636;2023-02-28T01:19:09;-2.50;76.40
76099;DHT22;64828;49.956;8.636;2023-02-28T01:19:24;-2.50;76.50
76099;DHT22;64828;49.956;8.636;2023-02-28T01:19:40;-2.40;76.50
76099;DHT22;64828;49.956;8.636;2023-02-28T01:19:56;-2.40;76.40
76099;DHT22;64828;49.956;8.636;2023-02-28T01:20:12;-2.40;76.30
76099;DHT22;64828;49.956;8.636;2023-02-28T01:20:28;-2.40;76.20
76099;DHT22;64828;49.956;8.636;2023-02-28T01:20:43;-2.40;76.20
76099;DHT22;64828;49.956;8.636;2023-02-28T01:21:07;-2.40;76.20
76099;DHT22;64828;49.956;8.636;2023-02-28T01:21:25;-2.40;76.40
76099;DHT22;64828;49.956;8.636;2023-02-28T01:21:41;-2.50;76.50
76099;DHT22;64828;49.956;8.636;2023-02-28T01:21:56;-2.50;76.50
76099;DHT22;64828;49.956;8.636;2023-02-28T01:22:12;-2.50;76.60
76099;DHT22;64828;49.956;8.636;2023-02-28T01:22:27;-2.50;76.50
76099;DHT22;64828;49.956;8.636;2023-02-28T01:22:43;-2.50;76.60
76099;DHT22;64828;49.956;8.636;2023-02-28T01:22:59;-2.50;76.60
76099;DHT22;64828;49.956;8.636;2023-02-28T01:23:14;-2.60;76.80
76099;DHT22;64828;49.956;8.636;2023-02-28T01:23:30;-2.60;76.90
76099;DHT22;64828;49.956;8.636;2023-02-28T01:23:47;-2.60;76.90
76099;DHT22;64828;49.956;8.636;2023-02-28T01:24:04;-2.60;76.90
76099;DHT22;64828;49.956;8.636;2023-02-28T01:24:21;-2.60;76.90
76099;DHT22;64828;49.956;8.636;2023-02-28T01:24:37;-2.60;77.00
76099;DHT22;64828;49.956;8.636;2023-02-28T01:24:53;-2.70;77.00
76099;DHT22;64828;49.956;8.636;2023-02-28T01:25:09;-2.70;77.20
76099;DHT22;64828;49.956;8.636;2023-02-28T01:25:24;-2.70;77.30
76099;DHT22;64828;49.956;8.636;2023-02-28T01:25:41;-2.70;77.40
76099;DHT22;64828;49.956;8.636;2023-02-28T01:25:56;-2.70;77.30
76099;DHT22;64828;49.956;8.636;2023-02-28T01:26:16;-2.60;77.40
76099;DHT22;64828;49.956;8.636;2023-02-28T01:26:33;-2.60;77.30
76099;DHT22;64828;49.956;8.636;2023-02-28T01:26:49;-2.70;77.30
76099;DHT22;64828;49.956;8.636;2023-02-28T01:27:04;-2.70;77.30
76099;DHT22;64828;49.956;8.636;2023-02-28T01:27:20;-2.70;77.20
76099;DHT22;64828;49.956;8.636;2023-02-28T01:27:35;-2.70;77.30
76099;DHT22;64828;49.956;8.636;2023-02-28T01:27:51;-2.60;77.40
76099;DHT22;64828;49.956;8.636;2023-02-28T01:28:07;-2.60;77.40
76099;DHT22;64828;49.956;8.636;2023-02-28T01:28:23;-2.60;77.40
76099;DHT22;64828;49.956;8.636;2023-02-28T01:28:38;-2.60;77.30
76099;DHT22;64828;49.956;8.636;2023-02-28T01:28:54;-2.70;77.20
76099;DHT22;64828;49.956;8.636;2023-02-28T01:29:10;-2.70;77.20
76099;DHT22;64828;49.956;8.636;2023-02-28T01:29:26;-2.70;77.30
76099;DHT22;64828;49.956;8.636;2023-02-28T01:29:41;-2.70;77.50
76099;DHT22;64828;49.956;8.636;2023-02-28T01:29:57;-2.70;77.60
76099;DHT22;64828;49.956;8.636;2023-02-28T01:30:13;-2.70;77.70
76099;DHT22;64828;49.956;8.636;2023-02-28T01:30:30;-2.80;77.50
76099;DHT22;64828;49.956;8.636;2023-02-28T01:30:50;-2.80;77.60
76099;DHT22;64828;49.956;8.636;2023-02-28T01:31:06;-2.80;77.70
76099;DHT22;64828;49.956;8.636;2023-02-28T01:31:23;-2.80;77.70
76099;DHT22;64828;49.956;8.636;2023-02-28T01:31:39;-2.80;77.50
76099;DHT22;64828;49.956;8.636;2023-02-28T01:31:55;-2.80;77.50
76099;DHT22;64828;49.956;8.636;2023-02-28T01:32:12;-2.70;77.70
76099;DHT22;64828;49.956;8.636;2023-02-28T01:32:27;-2.60;77.60
76099;DHT22;64828;49.956;8.636;2023-02-28T01:32:43;-2.70;77.50
76099;DHT22;64828;49.956;8.636;2023-02-28T01:32:59;-2.70;77.40
76099;DHT22;64828;49.956;8.636;2023-02-28T01:33:15;-2.70;77.50
76099;DHT22;64828;49.956;8.636;2023-02-28T01:33:31;-2.70;77.60
76099;DHT22;64828;49.956;8.636;2023-02-28T01:33:48;-2.70;77.50
76099;DHT22;64828;49.956;8.636;2023-02-28T01:34:04;-2.70;77.50
76099;DHT22;64828;49.956;8.636;2023-02-28T01:34:19;-2.60;77.60
76099;DHT22;64828;49.956;8.636;2023-02-28T01:34:35;-2.70;77.50
76099;DHT22;64828;49.956;8.636;2023-02-28T01:34:51;-2.70;77.50
76099;DHT22;64828;49.956;8.636;2023-02-28T01:35:06;-2.60;77.50
76099;DHT22;64828;49.956;8.636;2023-02-28T01:35:22;-2.60;77.50
76099;DHT22;64828;49.956;8.636;2023-02-28T01:35:38;-2.60;77.50
76099;DHT22;64828;49.956;8.636;2023-02-28T01:36:33;-2.60;77.30
76099;DHT22;64828;49.956;8.636;2023-02-28T01:36:48;-2.60;77.40
76099;DHT22;64828;49.956;8.636;2023-02-28T01:37:04;-2.60;77.40
76099;DHT22;64828;49.956;8.636;2023-02-28T01:37:20;-2.60;77.40
76099;DHT22;64828;49.956;8.636;2023-02-28T01:37:35;-2.60;77.30
76099;DHT22;64828;49.956;8.636;2023-02-28T01:37:51;-2.60;77.40
76099;DHT22;64828;49.956;8.636;2023-02-28T01:38:06;-2.60;77.40
76099;DHT22;64828;49.956;8.636;2023-02-28T01:38:22;-2.60;77.40
76099;DHT22;64828;49.956;8.636;2023-02-28T01:38:38;-2.60;77.40
76099;DHT22;64828;49.956;8.636;2023-02-28T01:38:54;-2.60;77.50
76099;DHT22;64828;49.956;8.636;2023-02-28T01:39:10;-2.70;77.50
76099;DHT22;64828;49.956;8.636;2023-02-28T01:39:26;-2.70;77.60
76099;DHT22;64828;49.956;8.636;2023-02-28T01:39:42;-2.60;77.70
76099;DHT22;64828;49.956;8.636;2023-02-28T01:39:57;-2.70;77.60
76099;DHT22;64828;49.956;8.636;2023-02-28T01:40:13;-2.70;77.50
76099;DHT22;64828;49.956;8.636;2023-02-28T01:40:30;-2.70;77.70
76099;DHT22;64828;49.956;8.636;2023-02-28T01:40:45;-2.70;77.80
76099;DHT22;64828;49.956;8.636;2023-02-28T01:41:01;-2.70;77.80
76099;DHT22;64828;49.956;8.636;2023-02-28T01:41:28;-2.70;77.80
76099;DHT22;64828;49.956;8.636;2023-02-28T01:41:46;-2.80;77.80
76099;DHT22;64828;49.956;8.636;2023-02-28T01:42:01;-2.80;77.70
76099;DHT22;64828;49.956;8.636;2023-02-28T01:42:17;-2.80;77.70
76099;DHT22;64828;49.956;8.636;2023-02-28T01:42:32;-2.80;78.00
76099;DHT22;64828;49.956;8.636;2023-02-28T01:42:48;-2.80;78.10
76099;DHT22;64828;49.956;8.636;2023-02-28T01:43:12;-2.80;78.10
76099;DHT22;64828;49.956;8.636;2023-02-28T01:44:53;-2.80;78.00
76099;DHT22;64828;49.956;8.636;2023-02-28T01:45:02;-2.80;78.10
76099;DHT22;64828;49.956;8.636;2023-02-28T01:45:25;-2.80;78.20